createdAt,value
2023-03-28T00:01:08.543Z,5.17
2023-03-28T00:03:39.435Z,4.87
2023-03-28T00:06:13.929Z,4.73
2023-03-28T00:08:41.398Z,4.80
2023-03-28T00:11:19.665Z,4.70
2023-03-28T00:13:57.798Z,4.20
2023-03-28T00:16:27.726Z,4.33
2023-03-28T00:18:54.747Z,4.40
2023-03-28T00:21:29.324Z,4.03
2023-03-28T00:24:03.008Z,4.33
2023-03-28T00:26:34.511Z,4.67
2023-03-28T00:29:03.927Z,3.70
2023-03-28T00:31:35.356Z,4.40
2023-03-28T00:34:02.567Z,3.83
2023-03-28T00:36:32.733Z,3.30
2023-03-28T00:39:01.864Z,3.97
2023-03-28T00:41:33.023Z,3.87
2023-03-28T00:44:01.311Z,3.73
2023-03-28T00:46:41.915Z,4.07
2023-03-28T00:49:23.486Z,4.47
2023-03-28T00:52:03.318Z,3.67
2023-03-28T00:54:39.796Z,4.50
2023-03-28T00:57:08.417Z,4.60
2023-03-28T00:59:38.917Z,3.57
2023-03-28T01:02:07.269Z,4.10
2023-03-28T01:04:52.229Z,4.63
2023-03-28T01:07:20.553Z,4.43
2023-03-28T01:09:49.440Z,4.73
2023-03-28T01:12:19.842Z,4.67
2023-03-28T01:14:47.794Z,4.27
2023-03-28T01:17:16.168Z,4.33
2023-03-28T01:19:50.492Z,4.57
2023-03-28T01:22:57.872Z,4.50
2023-03-28T01:25:53.651Z,4.10
2023-03-28T01:28:44.602Z,5.07
2023-03-28T01:31:47.960Z,5.00
2023-03-28T01:35:05.563Z,5.80
2023-03-28T01:37:51.774Z,5.23
2023-03-28T01:40:50.242Z,6.07
2023-03-28T01:43:43.816Z,6.37
2023-03-28T01:46:28.519Z,6.17
2023-03-28T01:49:18.257Z,6.93
2023-03-28T01:52:08.977Z,6.93
2023-03-28T01:55:09.370Z,6.83
2023-03-28T01:58:15.022Z,7.33
2023-03-28T02:00:48.002Z,7.10
2023-03-28T02:03:30.697Z,7.97
2023-03-28T02:05:59.809Z,8.27
2023-03-28T02:08:32.682Z,7.17
2023-03-28T02:10:59.910Z,6.63
2023-03-28T02:13:35.561Z,7.57
2023-03-28T02:16:05.041Z,7.50
2023-03-28T02:18:38.073Z,7.90
2023-03-28T02:21:17.081Z,6.83
2023-03-28T02:23:54.171Z,7.03
2023-03-28T02:26:24.167Z,7.67
2023-03-28T02:28:57.083Z,8.17
2023-03-28T02:31:25.067Z,7.90
2023-03-28T02:33:53.542Z,7.63
2023-03-28T02:37:07.680Z,8.33
2023-03-28T02:40:00.779Z,8.73
2023-03-28T02:43:01.276Z,8.07
2023-03-28T02:46:07.286Z,8.20
2023-03-28T02:48:59.208Z,8.00
2023-03-28T02:51:58.667Z,8.03
2023-03-28T02:54:58.552Z,8.10
2023-03-28T02:57:28.229Z,8.13
2023-03-28T02:59:58.892Z,7.83
2023-03-28T03:02:29.096Z,8.93
2023-03-28T03:04:57.894Z,7.80
2023-03-28T03:07:25.936Z,7.90
2023-03-28T03:09:53.937Z,8.50
2023-03-28T03:12:21.682Z,8.50
2023-03-28T03:14:50.886Z,9.30
2023-03-28T03:17:18.441Z,8.03
2023-03-28T03:19:45.631Z,9.27
2023-03-28T03:22:20.653Z,8.83
2023-03-28T03:24:51.116Z,8.03
2023-03-28T03:27:19.538Z,8.00
2023-03-28T03:29:48.572Z,7.73
2023-03-28T03:32:15.980Z,8.13
2023-03-28T03:34:43.016Z,7.80
2023-03-28T03:37:10.145Z,7.80
2023-03-28T03:39:37.185Z,7.27
2023-03-28T03:42:04.732Z,7.37
2023-03-28T03:44:31.960Z,7.63
2023-03-28T03:46:59.033Z,7.20
2023-03-28T03:49:26.042Z,7.17
2023-03-28T03:51:53.273Z,6.57
2023-03-28T03:54:20.394Z,8.17
2023-03-28T03:56:48.669Z,7.10
2023-03-28T03:59:16.571Z,7.23
2023-03-28T04:01:44.226Z,7.13
2023-03-28T04:04:11.612Z,7.90
2023-03-28T04:06:41.698Z,7.50
2023-03-28T04:09:08.995Z,6.63
2023-03-28T04:11:36.533Z,7.73
2023-03-28T04:14:04.258Z,8.13
2023-03-28T04:16:40.799Z,8.30
2023-03-28T04:19:11.033Z,8.20
2023-03-28T04:21:41.710Z,7.57
2023-03-28T04:24:09.425Z,7.57
2023-03-28T04:26:38.160Z,7.73
2023-03-28T04:29:05.978Z,7.07
2023-03-28T04:31:36.143Z,8.63
2023-03-28T04:34:06.284Z,7.47
2023-03-28T04:36:33.649Z,8.40
2023-03-28T04:39:02.876Z,8.40
2023-03-28T04:41:33.199Z,7.23
2023-03-28T04:44:00.998Z,8.77
2023-03-28T04:46:31.593Z,8.10
2023-03-28T04:48:58.575Z,7.47
2023-03-28T04:51:25.710Z,8.07
2023-03-28T04:53:52.746Z,7.60
2023-03-28T04:56:19.869Z,6.90
2023-03-28T04:58:47.759Z,8.00
2023-03-28T05:01:14.830Z,7.50
2023-03-28T05:03:41.949Z,7.60
2023-03-28T05:06:09.175Z,6.67
2023-03-28T05:08:36.336Z,7.47
2023-03-28T05:11:03.398Z,7.30
2023-03-28T05:13:30.530Z,7.03
2023-03-28T05:15:57.698Z,7.07
2023-03-28T05:18:24.723Z,6.83
2023-03-28T05:20:51.796Z,7.47
2023-03-28T05:23:18.929Z,7.33
2023-03-28T05:25:54.433Z,7.77
2023-03-28T05:28:21.917Z,8.30
2023-03-28T05:30:49.490Z,7.90
2023-03-28T05:33:16.720Z,8.20
2023-03-28T05:35:44.004Z,9.03
2023-03-28T05:38:11.531Z,8.80
2023-03-28T05:40:38.569Z,8.93
2023-03-28T05:43:05.821Z,9.10
2023-03-28T05:45:33.109Z,9.43
2023-03-28T05:48:00.205Z,9.10
2023-03-28T05:50:27.550Z,10.13
2023-03-28T05:52:54.640Z,9.53
2023-03-28T05:55:21.675Z,9.77
2023-03-28T05:57:48.703Z,10.20
2023-03-28T06:00:16.558Z,10.33
2023-03-28T06:02:43.636Z,10.23
2023-03-28T06:05:13.899Z,10.47
2023-03-28T06:07:42.958Z,10.40
2023-03-28T06:10:13.937Z,10.50
2023-03-28T06:12:41.514Z,10.80
2023-03-28T06:15:10.753Z,9.37
2023-03-28T06:17:38.304Z,10.17
2023-03-28T06:20:06.923Z,10.77
2023-03-28T06:22:34.198Z,10.87
2023-03-28T06:25:01.273Z,10.60
2023-03-28T06:27:28.472Z,11.30
2023-03-28T06:29:55.750Z,11.33
2023-03-28T06:32:22.985Z,11.07
2023-03-28T06:34:50.767Z,10.30
2023-03-28T06:37:17.788Z,10.07
2023-03-28T06:39:44.769Z,10.23
2023-03-28T06:42:11.828Z,10.10
2023-03-28T06:44:38.849Z,10.27
2023-03-28T06:47:05.981Z,10.40
2023-03-28T06:49:32.976Z,11.87
2023-03-28T06:51:59.964Z,10.07
2023-03-28T06:54:27.024Z,10.47
2023-03-28T06:56:54.076Z,11.77
2023-03-28T06:59:21.297Z,11.40
2023-03-28T07:01:48.368Z,10.43
2023-03-28T07:04:15.439Z,11.77
2023-03-28T07:06:42.449Z,11.10
2023-03-28T07:09:09.444Z,10.77
2023-03-28T07:11:36.461Z,9.80
2023-03-28T07:14:03.554Z,10.77
2023-03-28T07:16:30.628Z,10.83
2023-03-28T07:18:57.647Z,10.33
2023-03-28T07:21:24.650Z,10.60
2023-03-28T07:23:51.608Z,10.30
2023-03-28T07:26:18.603Z,10.67
2023-03-28T07:28:45.625Z,11.53
2023-03-28T07:31:13.067Z,11.07
2023-03-28T07:33:40.290Z,11.37
2023-03-28T07:36:15.386Z,11.50
2023-03-28T07:38:42.548Z,9.83
2023-03-28T07:41:10.922Z,11.57
2023-03-28T07:43:39.997Z,11.27
2023-03-28T07:46:11.202Z,10.53
2023-03-28T07:48:38.603Z,10.77
2023-03-28T07:51:06.546Z,10.87
2023-03-28T07:53:34.926Z,10.33
2023-03-28T07:56:01.963Z,9.60
2023-03-28T07:58:29.049Z,9.80
2023-03-28T08:00:56.434Z,8.90
2023-03-28T08:03:23.969Z,9.10
2023-03-28T08:05:54.416Z,8.27
2023-03-28T08:08:21.832Z,7.37
2023-03-28T08:10:52.171Z,7.60
2023-03-28T08:13:21.097Z,7.73
2023-03-28T08:15:54.990Z,7.90
2023-03-28T08:18:25.203Z,7.57
2023-03-28T08:21:00.074Z,7.40
2023-03-28T08:23:28.318Z,6.37
2023-03-28T08:26:05.133Z,5.90
2023-03-28T08:28:37.560Z,6.93
2023-03-28T08:31:16.343Z,6.17
2023-03-28T08:33:48.640Z,5.67
2023-03-28T08:36:15.734Z,5.10
2023-03-28T08:38:44.836Z,5.43
2023-03-28T08:41:42.248Z,4.80
2023-03-28T08:44:29.589Z,4.53
2023-03-28T08:47:12.064Z,7.23
2023-03-28T08:50:24.160Z,6.13
2023-03-28T08:52:51.974Z,4.57
2023-03-28T08:55:28.106Z,5.10
2023-03-28T08:57:57.580Z,4.00
2023-03-28T09:00:37.037Z,3.90
2023-03-28T09:03:12.692Z,3.37
2023-03-28T09:06:23.681Z,3.20
2023-03-28T09:09:08.816Z,3.80
2023-03-28T09:12:04.771Z,3.90
2023-03-28T09:15:17.566Z,4.03
2023-03-28T09:18:03.169Z,4.30
2023-03-28T09:20:57.232Z,4.50
2023-03-28T09:24:41.524Z,4.53
2023-03-28T09:27:37.723Z,5.60
2023-03-28T09:30:37.425Z,5.70
2023-03-28T09:33:13.296Z,6.00
2023-03-28T09:35:42.295Z,6.53
2023-03-28T09:38:29.578Z,6.27
2023-03-28T09:41:00.701Z,6.50
2023-03-28T09:43:42.567Z,7.53
2023-03-28T09:46:18.726Z,7.20
2023-03-28T09:48:45.947Z,6.97
2023-03-28T09:51:19.546Z,8.67
2023-03-28T09:53:46.771Z,8.10
2023-03-28T09:56:33.176Z,8.17
2023-03-28T09:59:03.662Z,8.43
2023-03-28T10:01:40.285Z,9.50
2023-03-28T10:04:17.345Z,7.50
2023-03-28T10:06:48.223Z,7.43
2023-03-28T10:09:28.518Z,7.13
2023-03-28T10:12:11.037Z,7.63
2023-03-28T10:14:41.426Z,5.53
2023-03-28T10:17:30.081Z,5.53
2023-03-28T10:20:19.539Z,5.07
2023-03-28T10:22:51.238Z,4.07
2023-03-28T10:25:36.834Z,4.03
2023-03-28T10:28:07.279Z,3.90
2023-03-28T10:30:36.977Z,3.30
2023-03-28T10:33:17.681Z,3.63
2023-03-28T10:35:53.960Z,3.10
2023-03-28T10:38:22.936Z,3.60
2023-03-28T10:41:05.098Z,3.17
2023-03-28T10:43:41.923Z,2.70
2023-03-28T10:46:20.092Z,2.70
2023-03-28T10:48:53.794Z,3.27
2023-03-28T10:51:24.417Z,3.00
2023-03-28T10:54:07.809Z,4.17
2023-03-28T10:57:04.263Z,3.87
2023-03-28T11:00:07.256Z,3.20
2023-03-28T11:02:50.013Z,2.70
2023-03-28T11:06:09.432Z,2.93
2023-03-28T11:08:51.495Z,2.83
2023-03-28T11:11:46.169Z,2.77
2023-03-28T11:14:45.223Z,2.17
2023-03-28T11:17:20.830Z,2.97
2023-03-28T11:20:27.001Z,3.10
2023-03-28T11:23:08.238Z,2.10
2023-03-28T11:25:55.719Z,2.13
2023-03-28T11:28:46.927Z,2.10
2023-03-28T11:31:26.739Z,2.10
2023-03-28T11:33:58.085Z,1.87
2023-03-28T11:37:08.140Z,2.37
2023-03-28T11:39:52.393Z,1.83
2023-03-28T11:42:34.846Z,2.03
2023-03-28T11:45:49.362Z,2.07
2023-03-28T11:48:34.716Z,1.90
2023-03-28T11:51:45.688Z,2.10
2023-03-28T11:54:12.600Z,1.47
2023-03-28T11:57:00.257Z,1.70
2023-03-28T11:59:47.875Z,1.60
2023-03-28T12:02:30.622Z,1.80
2023-03-28T12:05:26.989Z,1.60
2023-03-28T12:08:23.262Z,2.00
2023-03-28T12:10:57.561Z,1.60
2023-03-28T12:13:33.834Z,2.17
2023-03-28T12:16:18.810Z,1.73
2023-03-28T12:19:01.423Z,1.40
2023-03-28T12:21:54.323Z,1.97
2023-03-28T12:24:42.685Z,2.00
2023-03-28T12:27:27.713Z,1.63
2023-03-28T12:30:07.804Z,1.70
2023-03-28T12:33:01.872Z,2.03
2023-03-28T12:35:53.028Z,1.90
2023-03-28T12:38:32.914Z,1.60
2023-03-28T12:41:06.176Z,1.70
2023-03-28T12:43:38.741Z,1.30
2023-03-28T12:46:08.806Z,1.63
2023-03-28T12:48:54.384Z,1.37
2023-03-28T12:51:36.656Z,1.50
2023-03-28T12:54:15.793Z,1.70
2023-03-28T12:57:04.258Z,1.87
2023-03-28T12:59:56.383Z,1.20
2023-03-28T13:02:39.416Z,2.10
2023-03-28T13:05:43.925Z,2.00
2023-03-28T13:08:32.029Z,1.90
2023-03-28T13:11:55.015Z,2.03
2023-03-28T13:14:41.165Z,1.77
2023-03-28T13:17:18.442Z,3.10
2023-03-28T13:20:10.404Z,2.40
2023-03-28T13:22:48.837Z,2.17
2023-03-28T13:25:33.339Z,2.43
2023-03-28T13:28:22.921Z,1.97
2023-03-28T13:31:25.117Z,1.90
2023-03-28T13:33:54.140Z,2.17
2023-03-28T13:36:27.847Z,1.67
2023-03-28T13:39:25.406Z,1.10
2023-03-28T13:41:52.635Z,1.50
2023-03-28T13:44:39.448Z,1.70
2023-03-28T13:47:06.820Z,1.70
2023-03-28T13:49:54.746Z,2.60
2023-03-28T13:52:24.963Z,2.00
2023-03-28T13:54:55.048Z,1.90
2023-03-28T13:57:26.346Z,2.00
2023-03-28T14:00:05.851Z,1.53
2023-03-28T14:02:47.184Z,2.00
2023-03-28T14:05:23.189Z,1.57
2023-03-28T14:07:52.446Z,1.70
2023-03-28T14:10:39.558Z,1.77
2023-03-28T14:13:12.443Z,1.30
2023-03-28T14:15:42.122Z,1.80
2023-03-28T14:18:41.147Z,1.93
2023-03-28T14:21:08.483Z,2.33
2023-03-28T14:23:39.702Z,2.00
2023-03-28T14:26:20.264Z,1.67
2023-03-28T14:28:47.595Z,1.53
2023-03-28T14:31:37.614Z,2.00
2023-03-28T14:34:24.314Z,2.67
2023-03-28T14:36:59.808Z,1.83
2023-03-28T14:39:30.904Z,1.70
2023-03-28T14:42:02.287Z,1.90
2023-03-28T14:44:30.767Z,1.80
2023-03-28T14:46:59.977Z,1.70
2023-03-28T14:49:28.029Z,1.73
2023-03-28T14:52:01.305Z,2.20
2023-03-28T14:54:39.032Z,2.13
2023-03-28T14:57:06.618Z,1.80
2023-03-28T14:59:45.223Z,2.57
2023-03-28T15:02:36.855Z,1.70
2023-03-28T15:05:09.008Z,1.80
2023-03-28T15:07:37.349Z,2.27
2023-03-28T15:10:21.159Z,1.70
2023-03-28T15:13:05.676Z,1.57
2023-03-28T15:15:36.922Z,1.83
2023-03-28T15:18:13.554Z,1.90
2023-03-28T15:20:45.643Z,1.80
2023-03-28T15:23:27.129Z,2.13
2023-03-28T15:25:55.055Z,1.90
2023-03-28T15:28:22.649Z,2.60
2023-03-28T15:30:50.278Z,2.87
2023-03-28T15:33:28.131Z,2.17
2023-03-28T15:36:15.539Z,2.47
2023-03-28T15:38:43.304Z,1.90
2023-03-28T15:41:41.873Z,1.77
2023-03-28T15:44:27.788Z,2.13
2023-03-28T15:47:14.990Z,1.77
2023-03-28T15:49:42.235Z,2.13
2023-03-28T15:52:21.461Z,2.40
2023-03-28T15:54:59.757Z,2.70
2023-03-28T15:57:29.767Z,2.33
2023-03-28T15:59:58.413Z,1.80
2023-03-28T16:02:25.580Z,2.00
2023-03-28T16:05:09.705Z,1.70
2023-03-28T16:07:57.235Z,2.23
2023-03-28T16:10:25.672Z,1.53
2023-03-28T16:12:52.886Z,2.33
2023-03-28T16:15:20.340Z,2.00
2023-03-28T16:17:48.828Z,2.90
2023-03-28T16:20:22.238Z,1.93
2023-03-28T16:22:49.696Z,2.30
2023-03-28T16:25:16.800Z,2.57
2023-03-28T16:27:44.067Z,1.97
2023-03-28T16:30:27.131Z,1.87
2023-03-28T16:32:54.289Z,1.93
2023-03-28T16:35:22.775Z,2.20
2023-03-28T16:37:49.891Z,2.10
2023-03-28T16:40:17.418Z,2.07
2023-03-28T16:42:44.517Z,1.80
2023-03-28T16:45:13.039Z,1.60
2023-03-28T16:47:41.508Z,1.90
2023-03-28T16:50:09.671Z,2.00
2023-03-28T16:52:40.541Z,1.90
2023-03-28T16:55:14.919Z,1.57
2023-03-28T16:57:42.712Z,1.97
2023-03-28T17:00:17.956Z,1.60
2023-03-28T17:02:48.666Z,1.33
2023-03-28T17:05:16.940Z,1.57
2023-03-28T17:07:43.959Z,1.80
2023-03-28T17:10:11.631Z,1.40
2023-03-28T17:12:38.676Z,2.10
2023-03-28T17:15:06.785Z,1.90
2023-03-28T17:17:33.982Z,1.53
2023-03-28T17:20:01.350Z,1.33
2023-03-28T17:22:28.417Z,1.70
2023-03-28T17:24:57.305Z,1.43
2023-03-28T17:27:24.437Z,2.17
2023-03-28T17:29:51.860Z,2.17
2023-03-28T17:32:19.374Z,1.90
2023-03-28T17:34:46.807Z,1.80
2023-03-28T17:37:13.854Z,1.67
2023-03-28T17:39:41.169Z,2.00
2023-03-28T17:42:09.663Z,1.63
2023-03-28T17:44:36.713Z,1.60
2023-03-28T17:47:03.965Z,1.80
2023-03-28T17:49:31.286Z,1.70
2023-03-28T17:51:59.920Z,1.80
2023-03-28T17:54:27.141Z,1.73
2023-03-28T17:56:54.483Z,1.87
2023-03-28T17:59:22.332Z,1.80
2023-03-28T18:01:49.887Z,2.37
2023-03-28T18:04:17.748Z,1.90
2023-03-28T18:06:44.817Z,3.03
2023-03-28T18:09:11.904Z,2.40
2023-03-28T18:11:39.455Z,2.00
2023-03-28T18:14:08.722Z,2.40
2023-03-28T18:16:36.862Z,2.50
2023-03-28T18:19:06.871Z,2.53
2023-03-28T18:21:34.306Z,3.10
2023-03-28T18:24:01.283Z,2.70
2023-03-28T18:26:28.932Z,3.57
2023-03-28T18:28:55.997Z,3.17
2023-03-28T18:31:28.136Z,2.87
2023-03-28T18:33:57.205Z,2.77
2023-03-28T18:36:24.419Z,3.10
2023-03-28T18:38:51.784Z,3.07
2023-03-28T18:41:18.753Z,3.47
2023-03-28T18:43:45.815Z,4.03
2023-03-28T18:46:16.415Z,2.60
2023-03-28T18:48:44.880Z,2.50
2023-03-28T18:51:12.476Z,2.73
2023-03-28T18:53:39.530Z,3.03
2023-03-28T18:56:08.209Z,2.90
2023-03-28T18:58:37.155Z,2.57
2023-03-28T19:01:05.344Z,3.07
2023-03-28T19:03:40.364Z,3.17
2023-03-28T19:06:10.148Z,3.60
2023-03-28T19:08:37.783Z,3.50
2023-03-28T19:11:16.759Z,2.70
2023-03-28T19:13:44.257Z,2.53
2023-03-28T19:16:19.305Z,3.50
2023-03-28T19:18:47.472Z,3.40
2023-03-28T19:21:16.676Z,2.97
2023-03-28T19:23:44.554Z,3.43
2023-03-28T19:26:13.198Z,3.47
2023-03-28T19:28:41.176Z,3.30
2023-03-28T19:31:11.338Z,3.57
2023-03-28T19:33:40.872Z,3.77
2023-03-28T19:36:09.632Z,3.63
2023-03-28T19:38:38.226Z,3.73
2023-03-28T19:41:15.175Z,3.43
2023-03-28T19:43:43.065Z,3.37
2023-03-28T19:46:23.033Z,3.20
2023-03-28T19:48:53.231Z,3.23
2023-03-28T19:51:20.234Z,3.30
2023-03-28T19:53:47.243Z,3.60
2023-03-28T19:56:14.400Z,3.77
2023-03-28T19:58:41.772Z,3.30
2023-03-28T20:01:09.091Z,3.87
2023-03-28T20:03:36.217Z,2.97
2023-03-28T20:06:10.895Z,3.60
2023-03-28T20:08:38.706Z,3.33
2023-03-28T20:11:12.038Z,2.93
2023-03-28T20:13:39.917Z,3.13
2023-03-28T20:16:10.396Z,3.37
2023-03-28T20:18:38.898Z,3.47
2023-03-28T20:21:14.059Z,3.53
2023-03-28T20:23:41.526Z,3.07
2023-03-28T20:26:18.672Z,2.87
2023-03-28T20:28:52.310Z,3.63
2023-03-28T20:31:19.793Z,3.40
2023-03-28T20:33:46.921Z,3.37
2023-03-28T20:36:14.322Z,3.30
2023-03-28T20:38:41.406Z,3.47
2023-03-28T20:41:18.921Z,3.57
2023-03-28T20:43:50.286Z,2.80
2023-03-28T20:46:19.541Z,3.20
2023-03-28T20:48:52.612Z,3.50
2023-03-28T20:51:22.906Z,3.50
2023-03-28T20:53:59.810Z,3.57
2023-03-28T20:56:30.106Z,3.57
2023-03-28T20:58:59.666Z,3.37
2023-03-28T21:01:30.128Z,3.63
2023-03-28T21:04:00.180Z,4.23
2023-03-28T21:06:34.844Z,4.10
2023-03-28T21:09:08.600Z,3.17
2023-03-28T21:11:38.080Z,3.73
2023-03-28T21:14:07.066Z,3.50
2023-03-28T21:16:34.716Z,4.03
2023-03-28T21:19:02.735Z,3.30
2023-03-28T21:21:33.242Z,3.90
2023-03-28T21:24:01.047Z,3.57
2023-03-28T21:26:29.243Z,3.57
2023-03-28T21:28:56.352Z,3.83
2023-03-28T21:31:27.434Z,3.03
2023-03-28T21:33:59.528Z,3.33
2023-03-28T21:36:27.696Z,3.27
2023-03-28T21:38:56.110Z,2.77
2023-03-28T21:41:23.914Z,3.20
2023-03-28T21:43:53.766Z,3.07
2023-03-28T21:46:22.023Z,3.20
2023-03-28T21:48:50.144Z,3.47
2023-03-28T21:51:18.033Z,3.03
2023-03-28T21:53:45.806Z,2.93
2023-03-28T21:56:14.920Z,2.63
2023-03-28T21:58:42.572Z,2.90
2023-03-28T22:01:14.075Z,3.23
2023-03-28T22:03:41.787Z,3.90
2023-03-28T22:06:09.482Z,3.93
2023-03-28T22:08:36.688Z,3.67
2023-03-28T22:11:14.530Z,3.17
2023-03-28T22:13:44.924Z,2.73
2023-03-28T22:16:15.549Z,3.10
2023-03-28T22:18:50.321Z,3.57
2023-03-28T22:21:17.619Z,3.77
2023-03-28T22:23:47.081Z,2.73
2023-03-28T22:26:14.745Z,2.87
2023-03-28T22:28:41.825Z,3.20
2023-03-28T22:31:09.051Z,3.20
2023-03-28T22:33:37.146Z,2.93
2023-03-28T22:36:05.070Z,3.27
2023-03-28T22:38:32.129Z,3.40
2023-03-28T22:40:59.270Z,2.80
2023-03-28T22:43:26.796Z,3.00
2023-03-28T22:45:53.781Z,2.50
2023-03-28T22:48:22.028Z,2.93
2023-03-28T22:50:50.310Z,3.50
2023-03-28T22:53:18.264Z,4.00
2023-03-28T22:55:45.391Z,3.73
2023-03-28T22:58:12.575Z,4.00
2023-03-28T23:00:39.985Z,4.00
2023-03-28T23:03:08.090Z,3.90
2023-03-28T23:05:35.522Z,4.67
2023-03-28T23:08:03.183Z,4.27
2023-03-28T23:10:30.669Z,3.43
2023-03-28T23:12:58.087Z,3.43
2023-03-28T23:15:25.400Z,3.70
2023-03-28T23:17:52.789Z,3.50
2023-03-28T23:20:20.401Z,3.30
2023-03-28T23:22:48.833Z,3.00
2023-03-28T23:25:18.742Z,3.40
2023-03-28T23:27:46.776Z,3.23
2023-03-28T23:30:15.867Z,3.90
2023-03-28T23:32:43.143Z,3.17
2023-03-28T23:35:11.841Z,2.90
2023-03-28T23:37:39.908Z,2.90
2023-03-28T23:40:14.778Z,3.97
2023-03-28T23:42:44.188Z,2.97
2023-03-28T23:45:13.973Z,2.40
2023-03-28T23:47:42.048Z,2.93
2023-03-28T23:50:10.265Z,3.10
2023-03-28T23:52:37.506Z,3.10
2023-03-28T23:55:05.585Z,2.87
2023-03-28T23:57:33.063Z,3.00
